sensor_id;sensor_type;location;lat;lon;timestamp;P1;durP1;ratioP1;P2;durP2;ratioP2
28577;SDS011;15769;52.248;15.818;2022-11-27T00:03:18;79.07;;;36.65;;
28577;SDS011;15769;52.248;15.818;2022-11-27T00:13:28;74.00;;;31.75;;
28577;SDS011;15769;52.248;15.818;2022-11-27T00:18:31;80.57;;;35.25;;
28577;SDS011;15769;52.248;15.818;2022-11-27T00:23:36;74.55;;;33.67;;
28577;SDS011;15769;52.248;15.818;2022-11-27T00:28:39;86.70;;;36.97;;
28577;SDS011;15769;52.248;15.818;2022-11-27T00:33:41;84.72;;;35.90;;
28577;SDS011;15769;52.248;15.818;2022-11-27T00:38:46;78.70;;;37.35;;
28577;SDS011;15769;52.248;15.818;2022-11-27T00:43:48;74.88;;;35.78;;
28577;SDS011;15769;52.248;15.818;2022-11-27T00:48:51;69.57;;;30.93;;
28577;SDS011;15769;52.248;15.818;2022-11-27T00:53:54;67.93;;;26.70;;
28577;SDS011;15769;52.248;15.818;2022-11-27T00:58:57;64.07;;;27.17;;
28577;SDS011;15769;52.248;15.818;2022-11-27T01:04:17;57.08;;;24.17;;
28577;SDS011;15769;52.248;15.818;2022-11-27T01:09:22;85.15;;;34.03;;
28577;SDS011;15769;52.248;15.818;2022-11-27T01:14:25;74.37;;;28.27;;
28577;SDS011;15769;52.248;15.818;2022-11-27T01:19:27;85.37;;;32.00;;
28577;SDS011;15769;52.248;15.818;2022-11-27T01:24:32;92.47;;;30.35;;
28577;SDS011;15769;52.248;15.818;2022-11-27T01:29:37;81.82;;;27.27;;
28577;SDS011;15769;52.248;15.818;2022-11-27T01:34:42;90.20;;;29.48;;
28577;SDS011;15769;52.248;15.818;2022-11-27T01:39:52;121.13;;;33.53;;
28577;SDS011;15769;52.248;15.818;2022-11-27T01:44:56;71.28;;;25.90;;
28577;SDS011;15769;52.248;15.818;2022-11-27T01:50:02;78.97;;;29.63;;
28577;SDS011;15769;52.248;15.818;2022-11-27T01:55:14;118.70;;;38.92;;
28577;SDS011;15769;52.248;15.818;2022-11-27T02:00:24;77.80;;;28.80;;
28577;SDS011;15769;52.248;15.818;2022-11-27T02:05:27;64.85;;;25.90;;
28577;SDS011;15769;52.248;15.818;2022-11-27T02:10:35;55.50;;;23.20;;
28577;SDS011;15769;52.248;15.818;2022-11-27T02:31:33;43.35;;;18.75;;
28577;SDS011;15769;52.248;15.818;2022-11-27T02:47:48;45.65;;;20.27;;
28577;SDS011;15769;52.248;15.818;2022-11-27T02:52:53;36.50;;;16.73;;
28577;SDS011;15769;52.248;15.818;2022-11-27T02:57:59;34.28;;;16.23;;
28577;SDS011;15769;52.248;15.818;2022-11-27T03:03:07;36.05;;;16.65;;
28577;SDS011;15769;52.248;15.818;2022-11-27T03:08:23;34.40;;;15.50;;
28577;SDS011;15769;52.248;15.818;2022-11-27T03:13:30;46.20;;;20.33;;
28577;SDS011;15769;52.248;15.818;2022-11-27T03:23:51;44.85;;;20.00;;
28577;SDS011;15769;52.248;15.818;2022-11-27T03:28:54;34.25;;;15.98;;
28577;SDS011;15769;52.248;15.818;2022-11-27T03:39:01;45.50;;;19.90;;
28577;SDS011;15769;52.248;15.818;2022-11-27T03:55:34;44.05;;;17.48;;
28577;SDS011;15769;52.248;15.818;2022-11-27T04:00:39;36.97;;;15.20;;
28577;SDS011;15769;52.248;15.818;2022-11-27T04:05:45;41.15;;;16.33;;
28577;SDS011;15769;52.248;15.818;2022-11-27T04:10:48;40.47;;;16.27;;
28577;SDS011;15769;52.248;15.818;2022-11-27T04:15:51;41.13;;;17.92;;
28577;SDS011;15769;52.248;15.818;2022-11-27T04:20:55;39.95;;;16.63;;
28577;SDS011;15769;52.248;15.818;2022-11-27T04:25:59;35.95;;;16.15;;
28577;SDS011;15769;52.248;15.818;2022-11-27T04:31:06;37.88;;;16.70;;
28577;SDS011;15769;52.248;15.818;2022-11-27T04:36:22;57.78;;;24.00;;
28577;SDS011;15769;52.248;15.818;2022-11-27T04:41:26;42.65;;;18.70;;
28577;SDS011;15769;52.248;15.818;2022-11-27T04:46:34;34.95;;;16.08;;
28577;SDS011;15769;52.248;15.818;2022-11-27T04:51:38;42.55;;;18.80;;
28577;SDS011;15769;52.248;15.818;2022-11-27T04:56:42;42.83;;;17.90;;
28577;SDS011;15769;52.248;15.818;2022-11-27T05:01:48;45.03;;;19.23;;
28577;SDS011;15769;52.248;15.818;2022-11-27T05:06:56;43.80;;;18.02;;
28577;SDS011;15769;52.248;15.818;2022-11-27T05:12:00;42.72;;;17.52;;
28577;SDS011;15769;52.248;15.818;2022-11-27T05:17:04;48.38;;;19.67;;
28577;SDS011;15769;52.248;15.818;2022-11-27T05:22:09;49.47;;;19.73;;
28577;SDS011;15769;52.248;15.818;2022-11-27T05:27:12;49.10;;;19.98;;
28577;SDS011;15769;52.248;15.818;2022-11-27T05:32:19;48.30;;;20.98;;
28577;SDS011;15769;52.248;15.818;2022-11-27T05:37:25;49.42;;;21.45;;
28577;SDS011;15769;52.248;15.818;2022-11-27T05:42:28;131.77;;;84.35;;
28577;SDS011;15769;52.248;15.818;2022-11-27T05:47:36;59.45;;;25.02;;
28577;SDS011;15769;52.248;15.818;2022-11-27T05:52:39;48.83;;;19.92;;
28577;SDS011;15769;52.248;15.818;2022-11-27T05:57:42;42.97;;;17.65;;
28577;SDS011;15769;52.248;15.818;2022-11-27T06:02:46;41.20;;;17.88;;
28577;SDS011;15769;52.248;15.818;2022-11-27T06:07:51;43.80;;;17.92;;
28577;SDS011;15769;52.248;15.818;2022-11-27T06:12:57;53.42;;;20.75;;
28577;SDS011;15769;52.248;15.818;2022-11-27T06:18:03;54.75;;;20.20;;
28577;SDS011;15769;52.248;15.818;2022-11-27T06:23:10;58.65;;;21.08;;
28577;SDS011;15769;52.248;15.818;2022-11-27T06:28:12;85.07;;;29.73;;
28577;SDS011;15769;52.248;15.818;2022-11-27T06:33:28;123.38;;;42.47;;
28577;SDS011;15769;52.248;15.818;2022-11-27T06:38:41;100.53;;;34.47;;
28577;SDS011;15769;52.248;15.818;2022-11-27T06:44:10;72.03;;;26.10;;
28577;SDS011;15769;52.248;15.818;2022-11-27T06:49:30;102.72;;;35.25;;
28577;SDS011;15769;52.248;15.818;2022-11-27T06:54:36;69.03;;;23.08;;
28577;SDS011;15769;52.248;15.818;2022-11-27T06:59:43;70.43;;;24.08;;
28577;SDS011;15769;52.248;15.818;2022-11-27T07:04:46;52.00;;;20.43;;
28577;SDS011;15769;52.248;15.818;2022-11-27T07:09:50;47.60;;;20.02;;
28577;SDS011;15769;52.248;15.818;2022-11-27T07:14:53;58.10;;;21.80;;
28577;SDS011;15769;52.248;15.818;2022-11-27T07:19:56;57.30;;;22.13;;
28577;SDS011;15769;52.248;15.818;2022-11-27T07:24:59;50.17;;;20.57;;
28577;SDS011;15769;52.248;15.818;2022-11-27T07:30:05;49.10;;;19.63;;
28577;SDS011;15769;52.248;15.818;2022-11-27T07:35:14;43.40;;;18.10;;
28577;SDS011;15769;52.248;15.818;2022-11-27T07:40:21;52.78;;;20.67;;
28577;SDS011;15769;52.248;15.818;2022-11-27T07:45:39;59.55;;;23.77;;
28577;SDS011;15769;52.248;15.818;2022-11-27T07:50:51;53.45;;;20.52;;
28577;SDS011;15769;52.248;15.818;2022-11-27T07:55:59;52.08;;;21.27;;
28577;SDS011;15769;52.248;15.818;2022-11-27T08:01:07;44.92;;;18.77;;
28577;SDS011;15769;52.248;15.818;2022-11-27T08:06:24;60.75;;;25.60;;
28577;SDS011;15769;52.248;15.818;2022-11-27T08:11:28;46.22;;;20.25;;
28577;SDS011;15769;52.248;15.818;2022-11-27T08:16:34;39.90;;;17.05;;
28577;SDS011;15769;52.248;15.818;2022-11-27T08:21:38;46.40;;;19.85;;
28577;SDS011;15769;52.248;15.818;2022-11-27T08:26:45;38.47;;;16.88;;
28577;SDS011;15769;52.248;15.818;2022-11-27T08:31:53;34.95;;;15.32;;
28577;SDS011;15769;52.248;15.818;2022-11-27T08:36:59;39.63;;;17.90;;
28577;SDS011;15769;52.248;15.818;2022-11-27T08:42:02;49.10;;;20.30;;
28577;SDS011;15769;52.248;15.818;2022-11-27T08:47:05;38.72;;;18.30;;
28577;SDS011;15769;52.248;15.818;2022-11-27T08:52:08;40.00;;;18.95;;
28577;SDS011;15769;52.248;15.818;2022-11-27T08:57:13;43.90;;;19.60;;
28577;SDS011;15769;52.248;15.818;2022-11-27T09:02:18;54.28;;;22.30;;
28577;SDS011;15769;52.248;15.818;2022-11-27T09:07:23;44.85;;;19.67;;
28577;SDS011;15769;52.248;15.818;2022-11-27T09:13:37;44.85;;;19.90;;
28577;SDS011;15769;52.248;15.818;2022-11-27T09:19:06;46.97;;;21.08;;
28577;SDS011;15769;52.248;15.818;2022-11-27T09:25:08;47.70;;;20.65;;
28577;SDS011;15769;52.248;15.818;2022-11-27T09:50:16;33.67;;;15.90;;
28577;SDS011;15769;52.248;15.818;2022-11-27T09:56:15;35.35;;;15.40;;
28577;SDS011;15769;52.248;15.818;2022-11-27T10:01:25;38.50;;;18.33;;
28577;SDS011;15769;52.248;15.818;2022-11-27T10:26:23;30.90;;;15.23;;
28577;SDS011;15769;52.248;15.818;2022-11-27T10:43:37;26.20;;;14.43;;
28577;SDS011;15769;52.248;15.818;2022-11-27T11:14:55;38.03;;;22.17;;
28577;SDS011;15769;52.248;15.818;2022-11-27T11:26:38;62.83;;;35.67;;
28577;SDS011;15769;52.248;15.818;2022-11-27T11:33:20;77.80;;;48.13;;
28577;SDS011;15769;52.248;15.818;2022-11-27T11:38:29;40.28;;;25.08;;
28577;SDS011;15769;52.248;15.818;2022-11-27T12:08:57;30.30;;;16.75;;
28577;SDS011;15769;52.248;15.818;2022-11-27T13:53:17;44.90;;;24.20;;
28577;SDS011;15769;52.248;15.818;2022-11-27T13:58:44;37.50;;;20.52;;
28577;SDS011;15769;52.248;15.818;2022-11-27T14:10:56;23.45;;;14.35;;
28577;SDS011;15769;52.248;15.818;2022-11-27T14:16:33;21.48;;;12.63;;
28577;SDS011;15769;52.248;15.818;2022-11-27T14:21:57;29.92;;;15.57;;
28577;SDS011;15769;52.248;15.818;2022-11-27T14:27:23;31.38;;;15.50;;
28577;SDS011;15769;52.248;15.818;2022-11-27T14:32:47;27.13;;;14.23;;
28577;SDS011;15769;52.248;15.818;2022-11-27T14:38:08;35.28;;;18.75;;
28577;SDS011;15769;52.248;15.818;2022-11-27T14:43:29;36.58;;;20.95;;
28577;SDS011;15769;52.248;15.818;2022-11-27T14:48:46;36.05;;;19.40;;
28577;SDS011;15769;52.248;15.818;2022-11-27T14:54:02;34.03;;;18.55;;
28577;SDS011;15769;52.248;15.818;2022-11-27T14:59:12;32.15;;;17.85;;
28577;SDS011;15769;52.248;15.818;2022-11-27T15:04:25;35.50;;;20.40;;
28577;SDS011;15769;52.248;15.818;2022-11-27T15:14:46;27.23;;;15.23;;
28577;SDS011;15769;52.248;15.818;2022-11-27T15:19:56;23.67;;;14.32;;
28577;SDS011;15769;52.248;15.818;2022-11-27T15:25:03;27.77;;;15.85;;
28577;SDS011;15769;52.248;15.818;2022-11-27T15:30:09;25.13;;;14.43;;
28577;SDS011;15769;52.248;15.818;2022-11-27T15:35:28;26.05;;;15.05;;
28577;SDS011;15769;52.248;15.818;2022-11-27T15:40:37;25.70;;;14.45;;
28577;SDS011;15769;52.248;15.818;2022-11-27T15:45:44;26.10;;;14.07;;
28577;SDS011;15769;52.248;15.818;2022-11-27T15:51:01;23.73;;;14.57;;
28577;SDS011;15769;52.248;15.818;2022-11-27T15:56:14;25.52;;;15.30;;
28577;SDS011;15769;52.248;15.818;2022-11-27T16:01:29;41.88;;;22.50;;
28577;SDS011;15769;52.248;15.818;2022-11-27T16:06:34;44.88;;;23.60;;
28577;SDS011;15769;52.248;15.818;2022-11-27T16:11:44;45.80;;;23.58;;
28577;SDS011;15769;52.248;15.818;2022-11-27T16:17:00;35.50;;;18.92;;
28577;SDS011;15769;52.248;15.818;2022-11-27T16:22:03;36.80;;;19.33;;
28577;SDS011;15769;52.248;15.818;2022-11-27T16:27:07;36.53;;;19.75;;
28577;SDS011;15769;52.248;15.818;2022-11-27T16:32:15;39.00;;;21.48;;
28577;SDS011;15769;52.248;15.818;2022-11-27T16:37:55;43.20;;;22.95;;
28577;SDS011;15769;52.248;15.818;2022-11-27T16:43:35;45.53;;;24.55;;
28577;SDS011;15769;52.248;15.818;2022-11-27T16:48:42;43.55;;;22.75;;
28577;SDS011;15769;52.248;15.818;2022-11-27T16:53:49;43.72;;;22.48;;
28577;SDS011;15769;52.248;15.818;2022-11-27T16:59:01;36.50;;;19.40;;
